Oak Creek, Colorado
Current Conditions -  °F | °C
As of 5:35 AM on Monday 24 Nov 2014 (Local Time) from KSBS Reporting Station
Overcast Overcast  
Wind Chill: 19°   Ceiling: 500
Heat Index: 19°   Visibility: 1mi
Dew Point: 17°   Wind: 3mph
Humidity: 92%   Direction: 90°E
Pressure: 29.99"   Gusts: NA
Location:  40.27°N, 106.96°W
Report Text: KSBS 241235Z AUTO 09003KT 1SM OVC005 M07/M09 A2999 RMK AO1 T10751086
Loading
Personal Weather Stations






























Interactive Weather Map New forecast layout! Learn more

10-Day Weather Forecast

Advertisements
Track Severe Weather on mobile